Crane — ZR3519 — position and weather

sailwx.info

Track history (hours):
 
Tides and Currents Weather Stations Pressure Air Temp Water Temp Dewpoint Dewpoint Depression Visibility Wind Speed Wind Dir Waves Ship Positions

Crane

Last reported at 2015-May-23 14:33 UTC. Time now 2015-May-24 17:23 UTC.
Position S 29°52' E 031°01'.

MMSI: 601085000.

Date/timePositionNaut miles runAvg speedWind from/ knotsBaromVisibWave heightAir tempDewpointWater temp
2015-May-23 14:33S 29°52' E 031°01'0 0.0
2015-May-23 13:26S 29°52' E 031°01'0 0.0
2015-May-23 12:33S 29°52' E 031°01'0 0.0
2015-May-23 10:08S 29°52' E 031°01'0 0.0
2015-May-23 09:30S 29°52' E 031°01'0 0.0
2015-May-23 08:32S 29°52' E 031°01'3 3.5
2015-May-23 07:33S 29°53' E 031°05'2 1.6
2015-May-23 06:33S 29°54' E 031°05'3 2.6
2015-May-23 05:33S 29°52' E 031°06'5 4.2
2015-May-23 04:25S 29°52' E 031°01'0 0.0
2015-May-22 17:33S 29°52' E 031°01'6 5.7
2015-May-22 16:32S 29°52' E 031°08'0 0.4
2015-May-22 15:33S 29°52' E 031°08'1 0.9
2015-May-22 14:33S 29°53' E 031°07'5 4.3
2015-May-22 13:24S 29°52' E 031°01'0 0.1
2015-May-22 12:26S 29°52' E 031°01'0 0.0
2015-May-22 09:26S 29°52' E 031°01'0 0.0
2015-May-22 08:09S 29°52' E 031°01'0 0.1
2015-May-22 07:32S 29°52' E 031°01'0 0.0
2015-May-22 06:33S 29°52' E 031°01'0 0.0
2015-May-22 05:22S 29°52' E 031°01'0 0.0
2015-May-22 04:29S 29°52' E 031°01'0 0.0
2015-May-22 03:17S 29°52' E 031°01'0 0.0
2015-May-22 02:33S 29°52' E 031°01'0 0.0
2015-May-22 01:32S 29°52' E 031°01'0 0.0
2015-May-22 00:33S 29°52' E 031°01'0 0.0
2015-May-21 23:32S 29°52' E 031°01'0 0.0
2015-May-21 22:31S 29°52' E 031°01'0 0.0
2015-May-21 20:25S 29°52' E 031°01'0 0.0
2015-May-21 19:28S 29°52' E 031°01'0 0.0
2015-May-21 18:32S 29°52' E 031°01'0 0.0
2015-May-21 17:21S 29°52' E 031°01'0 0.0
2015-May-21 16:29S 29°52' E 031°01'0 0.0
2015-May-21 15:27S 29°52' E 031°01'0 0.0
2015-May-21 11:31S 29°52' E 031°01'0 0.0
2015-May-21 10:32S 29°52' E 031°01'0 0.1
2015-May-21 09:30S 29°52' E 031°01'0 0.0
2015-May-21 08:32S 29°52' E 031°01'2 2.2
2015-May-21 07:33S 29°52' E 031°03'2 2.4
2015-May-21 06:32S 29°54' E 031°06'1 1.3
2015-May-21 05:32S 29°52' E 031°06'4 4.1
2015-May-21 04:33S 29°52' E 031°02'1 1.0
2015-May-21 03:33S 29°52' E 031°01'0 0.0
2015-May-21 02:33S 29°52' E 031°01'0 0.0
2015-May-21 01:31S 29°52' E 031°01'0 0.0
2015-May-21 00:31S 29°52' E 031°01'0 0.0
2015-May-20 23:32S 29°52' E 031°01'0 0.0
2015-May-20 22:33S 29°52' E 031°01'0 0.0
2015-May-20 21:32S 29°52' E 031°01'0 0.0
2015-May-20 20:33S 29°52' E 031°01'0 0.0
2015-May-20 19:33S 29°52' E 031°01'0 0.0
2015-May-20 18:26S 29°52' E 031°01'0 0.0
2015-May-20 17:15S 29°52' E 031°01'1 0.4
2015-May-20 15:29S 29°52' E 031°02'5 4.9
2015-May-20 14:33S 29°53' E 031°07'3 3.1
2015-May-20 13:33S 29°52' E 031°03'2 2.0
2015-May-20 12:30S 29°52' E 031°01'0 0.0
2015-May-20 11:31S 29°52' E 031°01'0 0.0
2015-May-20 10:33S 29°52' E 031°01'0 0.0
2015-May-20 09:29S 29°52' E 031°01'0 0.0
2015-May-20 08:32S 29°52' E 031°01'0 0.0
2015-May-20 07:33S 29°52' E 031°01'0 0.0
2015-May-20 06:27S 29°52' E 031°01'0 0.0
2015-May-20 05:29S 29°52' E 031°01'0 0.0
2015-May-19 22:25S 29°52' E 031°01'0 0.0
2015-May-19 21:26S 29°52' E 031°01'0 0.0
2015-May-19 20:08S 29°52' E 031°01'0 0.2
2015-May-19 19:32S 29°52' E 031°01'2 2.3
2015-May-19 18:29S 29°52' E 031°04'4 4.0
2015-May-19 17:33S 29°53' E 031°08'0 0.4
2015-May-19 16:33S 29°53' E 031°07'4 3.5
2015-May-19 15:33S 29°52' E 031°03'2 2.0
2015-May-19 14:29S 29°52' E 031°01'0 0.0
2015-May-19 13:33S 29°52' E 031°01'0 0.0
2015-May-19 12:33S 29°52' E 031°01'0 0.0
2015-May-19 11:31S 29°52' E 031°01'0 0.0
2015-May-19 10:33S 29°52' E 031°01'0 0.0
2015-May-19 09:33S 29°52' E 031°01'0 0.1
2015-May-19 08:33S 29°52' E 031°01'5 5.4
2015-May-19 07:32S 29°52' E 031°07'1 0.8
2015-May-19 06:32S 29°53' E 031°07'1 0.6
2015-May-19 05:31S 29°53' E 031°07'5 4.0
2015-May-19 04:12S 29°52' E 031°01'0 0.0
2015-May-19 03:33S 29°52' E 031°01'0 0.0
2015-May-19 02:31S 29°52' E 031°01'0 0.0
2015-May-19 01:32S 29°52' E 031°01'0 0.0
2015-May-19 00:32S 29°52' E 031°01'0 0.0
2015-May-18 23:32S 29°52' E 031°01'0 0.0
2015-May-18 22:33S 29°52' E 031°01'0 0.0
2015-May-18 21:30S 29°52' E 031°01'0 0.0
2015-May-18 20:25S 29°52' E 031°01'0 0.0
2015-May-18 19:32S 29°52' E 031°01'0 0.0
2015-May-18 18:14S 29°52' E 031°01'0 0.0
2015-May-18 17:31S 29°52' E 031°01'2 0.4
2015-May-18 12:20S 29°52' E 031°03'2 1.7
2015-May-18 11:05S 29°52' E 031°01'0 0.0
2015-May-18 10:33S 29°52' E 031°01'0 0.0
2015-May-18 09:15S 29°52' E 031°01'0 0.0
2015-May-18 05:32S 29°52' E 031°01'  
2015-May-15 13:30S 29°52' E 031°01'0 0.0
2015-May-15 12:31S 29°52' E 031°01'0 0.0
2015-May-15 08:09S 29°52' E 031°01'1 2.0
2015-May-15 07:33S 29°52' E 031°02'5 4.9
2015-May-15 06:31S 29°53' E 031°08'2 1.6
2015-May-15 05:33S 29°53' E 031°06'5 4.0
2015-May-15 04:22S 29°52' E 031°01'0 0.0
2015-May-15 03:33S 29°52' E 031°01'0 0.0
2015-May-14 14:30S 29°52' E 031°01'0 0.0
2015-May-14 13:33S 29°52' E 031°01'0 0.0
2015-May-14 11:32S 29°52' E 031°01'0 0.0
2015-May-14 10:33S 29°52' E 031°01'0 0.0
2015-May-14 09:32S 29°52' E 031°01'0 0.0
2015-May-14 08:32S 29°52' E 031°01'0 0.0
2015-May-14 07:33S 29°52' E 031°01'0 0.0
2015-May-14 06:33S 29°52' E 031°01'0 0.1
2015-May-14 05:27S 29°52' E 031°01'2 0.1
2015-May-13 18:32S 29°53' E 031°03'5 4.9
2015-May-13 17:25S 29°54' E 031°09'1 1.2
2015-May-13 16:33S 29°54' E 031°08'1 1.3
2015-May-13 15:33S 29°53' E 031°06'5 4.9
2015-May-13 14:33S 29°52' E 031°01'  
Track history (hours):
 
Tides and Currents Weather Stations Pressure Air Temp Water Temp Dewpoint Dewpoint Depression Visibility Wind Speed Wind Dir Waves Ship Positions

Crane

Last reported at 2015-May-23 14:33 UTC. Time now 2015-May-24 17:23 UTC.
Position S 29°52' E 031°01'.

MMSI: 601085000.

Date/timePositionNaut miles runAvg speedWind from/ knotsBaromVisibWave heightAir tempDewpointWater temp
2015-May-23 14:33S 29°52' E 031°01'0 0.0
2015-May-23 13:26S 29°52' E 031°01'0 0.0
2015-May-23 12:33S 29°52' E 031°01'0 0.0
2015-May-23 10:08S 29°52' E 031°01'0 0.0
2015-May-23 09:30S 29°52' E 031°01'0 0.0
2015-May-23 08:32S 29°52' E 031°01'3 3.5
2015-May-23 07:33S 29°53' E 031°05'2 1.6
2015-May-23 06:33S 29°54' E 031°05'3 2.6
2015-May-23 05:33S 29°52' E 031°06'5 4.2
2015-May-23 04:25S 29°52' E 031°01'0 0.0
2015-May-22 17:33S 29°52' E 031°01'6 5.7
2015-May-22 16:32S 29°52' E 031°08'0 0.4
2015-May-22 15:33S 29°52' E 031°08'1 0.9
2015-May-22 14:33S 29°53' E 031°07'5 4.3
2015-May-22 13:24S 29°52' E 031°01'0 0.1
2015-May-22 12:26S 29°52' E 031°01'0 0.0
2015-May-22 09:26S 29°52' E 031°01'0 0.0
2015-May-22 08:09S 29°52' E 031°01'0 0.1
2015-May-22 07:32S 29°52' E 031°01'0 0.0
2015-May-22 06:33S 29°52' E 031°01'0 0.0
2015-May-22 05:22S 29°52' E 031°01'0 0.0
2015-May-22 04:29S 29°52' E 031°01'0 0.0
2015-May-22 03:17S 29°52' E 031°01'0 0.0
2015-May-22 02:33S 29°52' E 031°01'0 0.0
2015-May-22 01:32S 29°52' E 031°01'0 0.0
2015-May-22 00:33S 29°52' E 031°01'0 0.0
2015-May-21 23:32S 29°52' E 031°01'0 0.0
2015-May-21 22:31S 29°52' E 031°01'0 0.0
2015-May-21 20:25S 29°52' E 031°01'0 0.0
2015-May-21 19:28S 29°52' E 031°01'0 0.0
2015-May-21 18:32S 29°52' E 031°01'0 0.0
2015-May-21 17:21S 29°52' E 031°01'0 0.0
2015-May-21 16:29S 29°52' E 031°01'0 0.0
2015-May-21 15:27S 29°52' E 031°01'0 0.0
2015-May-21 11:31S 29°52' E 031°01'0 0.0
2015-May-21 10:32S 29°52' E 031°01'0 0.1
2015-May-21 09:30S 29°52' E 031°01'0 0.0
2015-May-21 08:32S 29°52' E 031°01'2 2.2
2015-May-21 07:33S 29°52' E 031°03'2 2.4
2015-May-21 06:32S 29°54' E 031°06'1 1.3
2015-May-21 05:32S 29°52' E 031°06'4 4.1
2015-May-21 04:33S 29°52' E 031°02'1 1.0
2015-May-21 03:33S 29°52' E 031°01'0 0.0
2015-May-21 02:33S 29°52' E 031°01'0 0.0
2015-May-21 01:31S 29°52' E 031°01'0 0.0
2015-May-21 00:31S 29°52' E 031°01'0 0.0
2015-May-20 23:32S 29°52' E 031°01'0 0.0
2015-May-20 22:33S 29°52' E 031°01'0 0.0
2015-May-20 21:32S 29°52' E 031°01'0 0.0
2015-May-20 20:33S 29°52' E 031°01'0 0.0
2015-May-20 19:33S 29°52' E 031°01'0 0.0
2015-May-20 18:26S 29°52' E 031°01'0 0.0
2015-May-20 17:15S 29°52' E 031°01'1 0.4
2015-May-20 15:29S 29°52' E 031°02'5 4.9
2015-May-20 14:33S 29°53' E 031°07'3 3.1
2015-May-20 13:33S 29°52' E 031°03'2 2.0
2015-May-20 12:30S 29°52' E 031°01'0 0.0
2015-May-20 11:31S 29°52' E 031°01'0 0.0
2015-May-20 10:33S 29°52' E 031°01'0 0.0
2015-May-20 09:29S 29°52' E 031°01'0 0.0
2015-May-20 08:32S 29°52' E 031°01'0 0.0
2015-May-20 07:33S 29°52' E 031°01'0 0.0
2015-May-20 06:27S 29°52' E 031°01'0 0.0
2015-May-20 05:29S 29°52' E 031°01'0 0.0
2015-May-19 22:25S 29°52' E 031°01'0 0.0
2015-May-19 21:26S 29°52' E 031°01'0 0.0
2015-May-19 20:08S 29°52' E 031°01'0 0.2
2015-May-19 19:32S 29°52' E 031°01'2 2.3
2015-May-19 18:29S 29°52' E 031°04'4 4.0
2015-May-19 17:33S 29°53' E 031°08'0 0.4
2015-May-19 16:33S 29°53' E 031°07'4 3.5
2015-May-19 15:33S 29°52' E 031°03'2 2.0
2015-May-19 14:29S 29°52' E 031°01'0 0.0
2015-May-19 13:33S 29°52' E 031°01'0 0.0
2015-May-19 12:33S 29°52' E 031°01'0 0.0
2015-May-19 11:31S 29°52' E 031°01'0 0.0
2015-May-19 10:33S 29°52' E 031°01'0 0.0
2015-May-19 09:33S 29°52' E 031°01'0 0.1
2015-May-19 08:33S 29°52' E 031°01'5 5.4
2015-May-19 07:32S 29°52' E 031°07'1 0.8
2015-May-19 06:32S 29°53' E 031°07'1 0.6
2015-May-19 05:31S 29°53' E 031°07'5 4.0
2015-May-19 04:12S 29°52' E 031°01'0 0.0
2015-May-19 03:33S 29°52' E 031°01'0 0.0
2015-May-19 02:31S 29°52' E 031°01'0 0.0
2015-May-19 01:32S 29°52' E 031°01'0 0.0
2015-May-19 00:32S 29°52' E 031°01'0 0.0
2015-May-18 23:32S 29°52' E 031°01'0 0.0
2015-May-18 22:33S 29°52' E 031°01'0 0.0
2015-May-18 21:30S 29°52' E 031°01'0 0.0
2015-May-18 20:25S 29°52' E 031°01'0 0.0
2015-May-18 19:32S 29°52' E 031°01'0 0.0
2015-May-18 18:14S 29°52' E 031°01'0 0.0
2015-May-18 17:31S 29°52' E 031°01'2 0.4
2015-May-18 12:20S 29°52' E 031°03'2 1.7
2015-May-18 11:05S 29°52' E 031°01'0 0.0
2015-May-18 10:33S 29°52' E 031°01'0 0.0
2015-May-18 09:15S 29°52' E 031°01'0 0.0
2015-May-18 05:32S 29°52' E 031°01'  
2015-May-15 13:30S 29°52' E 031°01'0 0.0
2015-May-15 12:31S 29°52' E 031°01'0 0.0
2015-May-15 08:09S 29°52' E 031°01'1 2.0
2015-May-15 07:33S 29°52' E 031°02'5 4.9
2015-May-15 06:31S 29°53' E 031°08'2 1.6
2015-May-15 05:33S 29°53' E 031°06'5 4.0
2015-May-15 04:22S 29°52' E 031°01'0 0.0
2015-May-15 03:33S 29°52' E 031°01'0 0.0
2015-May-14 14:30S 29°52' E 031°01'0 0.0
2015-May-14 13:33S 29°52' E 031°01'0 0.0
2015-May-14 11:32S 29°52' E 031°01'0 0.0
2015-May-14 10:33S 29°52' E 031°01'0 0.0
2015-May-14 09:32S 29°52' E 031°01'0 0.0
2015-May-14 08:32S 29°52' E 031°01'0 0.0
2015-May-14 07:33S 29°52' E 031°01'0 0.0
2015-May-14 06:33S 29°52' E 031°01'0 0.1
2015-May-14 05:27S 29°52' E 031°01'2 0.1
2015-May-13 18:32S 29°53' E 031°03'5 4.9
2015-May-13 17:25S 29°54' E 031°09'1 1.2
2015-May-13 16:33S 29°54' E 031°08'1 1.3
2015-May-13 15:33S 29°53' E 031°06'5 4.9
2015-May-13 14:33S 29°52' E 031°01'  

Dump ship's entire track history